createdAt,value
2022-10-04T00:01:28.809Z,0.60
2022-10-04T00:04:06.841Z,0.50
2022-10-04T00:06:36.485Z,0.60
2022-10-04T00:09:09.958Z,0.50
2022-10-04T00:11:40.085Z,0.50
2022-10-04T00:14:15.150Z,0.70
2022-10-04T00:16:43.911Z,0.50
2022-10-04T00:19:26.527Z,0.70
2022-10-04T00:22:28.892Z,0.70
2022-10-04T00:25:22.660Z,0.70
2022-10-04T00:28:17.849Z,0.90
2022-10-04T00:30:45.972Z,0.80
2022-10-04T00:33:37.159Z,1.00
2022-10-04T00:36:49.242Z,1.10
2022-10-04T00:39:38.756Z,0.60
2022-10-04T00:42:44.981Z,0.60
2022-10-04T00:45:23.943Z,0.70
2022-10-04T00:48:30.480Z,0.70
2022-10-04T00:51:05.364Z,0.50
2022-10-04T00:53:48.862Z,0.60
2022-10-04T00:56:25.116Z,0.90
2022-10-04T00:59:18.471Z,0.60
2022-10-04T01:01:50.965Z,0.60
2022-10-04T01:04:28.989Z,0.50
2022-10-04T01:07:00.534Z,0.60
2022-10-04T01:09:29.227Z,0.50
2022-10-04T01:12:04.700Z,0.50
2022-10-04T01:14:41.262Z,1.13
2022-10-04T01:17:10.086Z,0.60
2022-10-04T01:19:41.363Z,0.60
2022-10-04T01:22:12.731Z,0.60
2022-10-04T01:24:43.576Z,1.30
2022-10-04T01:27:33.964Z,0.67
2022-10-04T01:30:03.211Z,0.50
2022-10-04T01:32:32.642Z,0.50
2022-10-04T01:35:00.710Z,0.57
2022-10-04T01:37:29.053Z,0.67
2022-10-04T01:39:58.683Z,0.50
2022-10-04T01:42:33.016Z,0.50
2022-10-04T01:45:08.252Z,0.50
2022-10-04T01:47:57.986Z,0.50
2022-10-04T01:50:30.828Z,0.50
2022-10-04T01:53:07.950Z,0.63
2022-10-04T01:55:41.719Z,0.70
2022-10-04T01:58:15.219Z,0.50
2022-10-04T02:00:51.151Z,0.60
2022-10-04T02:03:24.946Z,0.80
2022-10-04T02:05:57.634Z,0.57
2022-10-04T02:08:28.433Z,0.60
2022-10-04T02:10:58.807Z,0.50
2022-10-04T02:13:30.347Z,0.70
2022-10-04T02:15:59.869Z,0.77
2022-10-04T02:18:29.895Z,0.50
2022-10-04T02:20:59.186Z,0.60
2022-10-04T02:23:28.330Z,0.87
2022-10-04T02:25:57.883Z,0.50
2022-10-04T02:28:26.502Z,0.93
2022-10-04T02:31:12.574Z,0.70
2022-10-04T02:33:42.296Z,0.50
2022-10-04T02:36:11.128Z,0.50
2022-10-04T02:38:43.291Z,0.60
2022-10-04T02:41:20.553Z,0.60
2022-10-04T02:43:52.550Z,0.80
2022-10-04T02:46:26.926Z,0.60
2022-10-04T02:48:58.254Z,0.53
2022-10-04T02:51:32.066Z,0.50
2022-10-04T02:54:08.426Z,0.57
2022-10-04T02:56:38.573Z,0.60
2022-10-04T02:59:07.735Z,0.80
2022-10-04T03:01:48.118Z,0.80
2022-10-04T03:04:16.550Z,0.50
2022-10-04T03:06:46.746Z,0.97
2022-10-04T03:09:15.976Z,0.70
2022-10-04T03:11:46.520Z,0.60
2022-10-04T03:14:17.280Z,0.50
2022-10-04T03:16:46.519Z,0.97
2022-10-04T03:19:17.140Z,0.70
2022-10-04T03:21:48.307Z,0.60
2022-10-04T03:24:20.655Z,1.00
2022-10-04T03:26:53.560Z,1.20
2022-10-04T03:29:24.501Z,0.70
2022-10-04T03:31:58.205Z,0.67
2022-10-04T03:34:28.606Z,0.80
2022-10-04T03:36:59.110Z,0.90
2022-10-04T03:39:32.708Z,1.47
2022-10-04T03:42:05.427Z,0.90
2022-10-04T03:44:33.601Z,0.60
2022-10-04T03:47:02.273Z,0.67
2022-10-04T03:49:36.460Z,0.90
2022-10-04T03:52:05.557Z,1.43
2022-10-04T03:54:34.303Z,0.50
2022-10-04T03:57:04.113Z,1.00
2022-10-04T03:59:32.331Z,0.70
2022-10-04T04:02:08.224Z,0.60
2022-10-04T04:04:44.237Z,0.70
2022-10-04T04:07:16.788Z,0.50
2022-10-04T04:09:46.533Z,0.70
2022-10-04T04:12:20.471Z,0.50
2022-10-04T04:14:52.023Z,0.70
2022-10-04T04:17:38.977Z,0.60
2022-10-04T04:20:16.599Z,0.50
2022-10-04T04:22:46.605Z,0.50
2022-10-04T04:25:17.150Z,0.60
2022-10-04T04:27:49.367Z,0.70
2022-10-04T04:30:19.682Z,0.50
2022-10-04T04:32:52.635Z,0.70
2022-10-04T04:35:26.329Z,0.60
2022-10-04T04:38:06.116Z,0.50
2022-10-04T04:40:34.200Z,1.00
2022-10-04T04:43:04.514Z,0.57
2022-10-04T04:45:34.342Z,0.50
2022-10-04T04:48:03.911Z,0.70
2022-10-04T04:50:35.685Z,0.80
2022-10-04T04:53:08.862Z,1.00
2022-10-04T04:56:02.393Z,0.60
2022-10-04T04:58:35.446Z,0.57
2022-10-04T05:01:06.206Z,0.50
2022-10-04T05:03:34.801Z,0.50
2022-10-04T05:06:05.104Z,1.37
2022-10-04T05:08:38.736Z,1.10
2022-10-04T05:11:16.515Z,1.20
2022-10-04T05:13:51.492Z,1.23
2022-10-04T05:16:24.703Z,1.77
2022-10-04T05:18:58.201Z,0.50
2022-10-04T05:21:30.728Z,1.17
2022-10-04T05:24:08.753Z,0.60
2022-10-04T05:26:36.871Z,0.60
2022-10-04T05:29:12.407Z,0.57
2022-10-04T05:31:49.640Z,0.60
2022-10-04T05:34:22.884Z,0.73
2022-10-04T05:37:22.300Z,1.43
2022-10-04T05:40:00.860Z,0.60
2022-10-04T05:42:37.765Z,1.17
2022-10-04T05:45:16.247Z,0.67
2022-10-04T05:47:45.218Z,1.30
2022-10-04T05:50:18.554Z,1.10
2022-10-04T05:52:51.137Z,1.10
2022-10-04T05:55:28.061Z,1.50
2022-10-04T05:58:22.619Z,1.07
2022-10-04T06:01:21.925Z,1.57
2022-10-04T06:04:05.661Z,1.50
2022-10-04T06:06:42.146Z,0.70
2022-10-04T06:09:17.714Z,1.53
2022-10-04T06:11:55.739Z,4.40
2022-10-04T06:14:58.450Z,1.00
2022-10-04T06:17:47.567Z,0.97
2022-10-04T06:20:48.711Z,0.90
2022-10-04T06:23:18.772Z,1.73
2022-10-04T06:25:52.143Z,0.70
2022-10-04T06:28:25.128Z,0.80
2022-10-04T06:31:18.555Z,1.37
2022-10-04T06:34:08.339Z,1.00
2022-10-04T06:36:51.703Z,1.30
2022-10-04T06:39:40.477Z,0.93
2022-10-04T06:42:27.150Z,1.27
2022-10-04T06:45:09.411Z,1.00
2022-10-04T06:47:54.505Z,1.20
2022-10-04T06:50:34.198Z,1.13
2022-10-04T06:53:27.134Z,1.00
2022-10-04T06:56:20.115Z,1.20
2022-10-04T06:59:23.700Z,0.73
2022-10-04T07:01:56.180Z,1.50
2022-10-04T07:04:55.784Z,1.37
2022-10-04T07:07:35.505Z,1.30
2022-10-04T07:10:25.342Z,1.20
2022-10-04T07:13:05.425Z,0.87
2022-10-04T07:15:44.595Z,0.93
2022-10-04T07:18:17.462Z,1.07
2022-10-04T07:20:48.956Z,3.43
2022-10-04T07:23:28.673Z,1.33
2022-10-04T07:26:02.313Z,2.23
2022-10-04T07:28:51.640Z,1.33
2022-10-04T07:31:26.390Z,1.30
2022-10-04T07:33:59.367Z,1.00
2022-10-04T07:36:31.006Z,1.20
2022-10-04T07:39:07.083Z,1.00
2022-10-04T07:41:39.002Z,1.50
2022-10-04T07:44:16.083Z,1.90
2022-10-04T07:46:52.971Z,1.27
2022-10-04T07:49:22.898Z,1.70
2022-10-04T07:52:11.860Z,1.30
2022-10-04T07:54:48.326Z,1.17
2022-10-04T07:57:22.391Z,1.17
2022-10-04T07:59:59.094Z,0.87
2022-10-04T08:02:40.370Z,1.90
2022-10-04T08:05:19.803Z,0.83
2022-10-04T08:08:08.890Z,0.93
2022-10-04T08:10:47.268Z,1.43
2022-10-04T08:13:23.494Z,1.50
2022-10-04T08:15:53.612Z,1.70
2022-10-04T08:18:35.610Z,1.80
2022-10-04T08:21:07.364Z,1.50
2022-10-04T08:24:02.654Z,1.10
2022-10-04T08:26:42.045Z,1.20
2022-10-04T08:29:43.066Z,2.03
2022-10-04T08:32:23.305Z,2.07
2022-10-04T08:35:16.299Z,1.20
2022-10-04T08:37:59.226Z,2.10
2022-10-04T08:41:07.054Z,2.37
2022-10-04T08:44:19.579Z,1.57
2022-10-04T08:47:33.370Z,1.60
2022-10-04T08:50:49.300Z,1.30
2022-10-04T08:53:45.388Z,1.33
2022-10-04T08:56:22.398Z,1.77
2022-10-04T08:59:32.259Z,1.20
2022-10-04T09:02:27.033Z,1.10
2022-10-04T09:05:18.971Z,2.47
2022-10-04T09:08:18.251Z,1.60
2022-10-04T09:11:12.427Z,1.80
2022-10-04T09:13:49.110Z,1.17
2022-10-04T09:16:19.579Z,2.10
2022-10-04T09:19:11.379Z,2.97
2022-10-04T09:21:51.523Z,1.13
2022-10-04T09:24:39.724Z,1.70
2022-10-04T09:27:37.091Z,2.70
2022-10-04T09:30:19.635Z,1.47
2022-10-04T09:33:16.626Z,1.30
2022-10-04T09:36:02.968Z,2.00
2022-10-04T09:39:28.588Z,1.60
2022-10-04T09:42:15.027Z,1.60
2022-10-04T09:45:27.662Z,0.93
2022-10-04T09:48:18.318Z,1.50
2022-10-04T09:51:19.220Z,2.90
2022-10-04T09:53:59.528Z,1.30
2022-10-04T09:56:45.222Z,0.80
2022-10-04T09:59:37.483Z,1.30
2022-10-04T10:02:30.313Z,1.20
2022-10-04T10:05:29.329Z,1.60
2022-10-04T10:08:08.961Z,1.03
2022-10-04T10:11:05.844Z,1.73
2022-10-04T10:14:07.365Z,2.23
2022-10-04T10:16:45.638Z,1.83
2022-10-04T10:19:42.051Z,1.87
2022-10-04T10:22:31.928Z,1.10
2022-10-04T10:25:16.895Z,1.53
2022-10-04T10:27:58.234Z,1.73
2022-10-04T10:30:31.166Z,1.47
2022-10-04T10:33:38.620Z,1.30
2022-10-04T10:36:42.815Z,0.93
2022-10-04T10:39:43.987Z,1.53
2022-10-04T10:42:30.055Z,1.50
2022-10-04T10:45:22.172Z,1.53
2022-10-04T10:47:59.648Z,1.93
2022-10-04T10:51:00.069Z,1.20
2022-10-04T10:53:54.691Z,1.63
2022-10-04T10:56:37.866Z,1.03
2022-10-04T10:59:43.817Z,1.23
2022-10-04T11:02:50.573Z,1.10
2022-10-04T11:05:45.871Z,1.17
2022-10-04T11:08:49.643Z,1.87
2022-10-04T11:11:33.222Z,1.53
2022-10-04T11:14:37.020Z,2.37
2022-10-04T11:17:27.296Z,1.80
2022-10-04T11:20:27.260Z,1.37
2022-10-04T11:23:26.147Z,1.00
2022-10-04T11:26:16.966Z,1.00
2022-10-04T11:28:49.003Z,1.00
2022-10-04T11:32:11.227Z,1.23
2022-10-04T11:35:11.962Z,1.30
2022-10-04T11:38:02.371Z,1.83
2022-10-04T11:40:46.139Z,1.93
2022-10-04T11:43:42.626Z,1.10
2022-10-04T11:46:24.806Z,1.67
2022-10-04T11:49:05.945Z,1.60
2022-10-04T11:52:02.825Z,1.33
2022-10-04T11:55:01.055Z,1.90
2022-10-04T11:57:37.168Z,1.17
2022-10-04T12:00:16.072Z,1.37
2022-10-04T12:03:16.569Z,1.50
2022-10-04T12:06:09.525Z,1.80
2022-10-04T12:08:51.892Z,1.30
2022-10-04T12:12:19.958Z,1.07
2022-10-04T12:15:08.565Z,0.90
2022-10-04T12:18:12.535Z,1.60
2022-10-04T12:20:58.171Z,1.70
2022-10-04T12:24:00.152Z,1.67
2022-10-04T12:26:52.732Z,1.10
2022-10-04T12:30:15.075Z,1.00
2022-10-04T12:33:04.713Z,0.87
2022-10-04T12:35:49.390Z,1.40
2022-10-04T12:38:37.458Z,0.90
2022-10-04T12:41:16.821Z,1.30
2022-10-04T12:43:52.568Z,1.00
2022-10-04T12:46:32.318Z,0.90
2022-10-04T12:49:16.720Z,1.10
2022-10-04T12:51:55.641Z,1.00
2022-10-04T12:54:35.384Z,1.40
2022-10-04T12:57:34.495Z,1.47
2022-10-04T13:00:14.460Z,1.47
2022-10-04T13:03:11.152Z,1.07
2022-10-04T13:05:50.083Z,0.90
2022-10-04T13:08:32.653Z,1.10
2022-10-04T13:11:20.989Z,1.67
2022-10-04T13:14:23.903Z,0.80
2022-10-04T13:19:59.528Z,1.03
2022-10-04T13:22:56.604Z,1.00
2022-10-04T13:25:37.973Z,1.10
2022-10-04T13:28:23.116Z,2.20
2022-10-04T13:31:02.244Z,1.47
2022-10-04T13:33:39.877Z,1.23
2022-10-04T13:36:12.713Z,1.07
2022-10-04T13:39:02.004Z,1.40
2022-10-04T13:41:41.355Z,1.40
2022-10-04T13:44:30.111Z,1.23
2022-10-04T13:47:15.186Z,1.07
2022-10-04T13:49:57.404Z,1.63
2022-10-04T13:52:56.065Z,1.47
2022-10-04T13:55:59.343Z,2.17
2022-10-04T13:58:36.644Z,1.10
2022-10-04T14:02:58.941Z,1.30
2022-10-04T14:06:18.139Z,1.67
2022-10-04T14:09:15.628Z,1.93
2022-10-04T14:12:07.958Z,1.10
2022-10-04T14:15:04.303Z,1.20
2022-10-04T14:18:04.156Z,1.03
2022-10-04T14:21:15.310Z,1.10
2022-10-04T14:24:19.403Z,1.67
2022-10-04T14:27:20.458Z,1.27
2022-10-04T14:30:04.739Z,1.23
2022-10-04T14:33:03.390Z,1.73
2022-10-04T14:35:35.057Z,1.10
2022-10-04T14:38:26.843Z,0.60
2022-10-04T14:41:47.883Z,1.30
2022-10-04T14:44:45.286Z,0.83
2022-10-04T14:47:32.136Z,1.00
2022-10-04T14:50:24.889Z,1.60
2022-10-04T14:53:07.755Z,1.40
2022-10-04T14:56:09.245Z,1.30
2022-10-04T14:58:47.695Z,1.00
2022-10-04T15:01:22.150Z,1.10
2022-10-04T15:04:20.820Z,0.80
2022-10-04T15:06:51.592Z,0.80
2022-10-04T15:09:51.483Z,1.37
2022-10-04T15:13:11.513Z,1.23
2022-10-04T15:15:59.847Z,1.00
2022-10-04T15:18:39.813Z,1.23
2022-10-04T15:21:21.286Z,1.60
2022-10-04T15:23:55.500Z,1.37
2022-10-04T15:26:53.104Z,1.50
2022-10-04T15:29:28.959Z,1.77
2022-10-04T15:32:07.646Z,1.23
2022-10-04T15:34:46.358Z,2.17
2022-10-04T15:37:26.455Z,1.60
2022-10-04T15:40:04.352Z,2.93
2022-10-04T15:42:36.069Z,2.20
2022-10-04T15:45:27.573Z,1.57
2022-10-04T15:48:24.185Z,1.17
2022-10-04T15:51:03.908Z,1.13
2022-10-04T15:54:02.905Z,1.23
2022-10-04T15:56:49.362Z,1.23
2022-10-04T15:59:42.066Z,2.00
2022-10-04T16:02:35.742Z,1.17
2022-10-04T16:05:20.947Z,0.70
2022-10-04T16:08:19.698Z,1.00
2022-10-04T16:11:04.855Z,0.80
2022-10-04T16:14:00.367Z,0.70
2022-10-04T16:16:59.883Z,0.90
2022-10-04T16:19:48.423Z,0.90
2022-10-04T16:22:19.601Z,1.00
2022-10-04T16:24:51.231Z,1.50
2022-10-04T16:27:30.363Z,0.87
2022-10-04T16:30:26.176Z,0.97
2022-10-04T16:33:22.158Z,1.10
2022-10-04T16:36:02.910Z,0.87
2022-10-04T16:38:36.174Z,1.10
2022-10-04T16:41:11.808Z,0.90
2022-10-04T16:43:52.603Z,1.00
2022-10-04T16:46:26.486Z,1.10
2022-10-04T16:48:59.656Z,0.70
2022-10-04T16:52:06.810Z,0.90
2022-10-04T16:55:00.941Z,1.40
2022-10-04T16:57:29.412Z,0.90
2022-10-04T17:00:01.074Z,0.90
2022-10-04T17:02:46.836Z,1.70
2022-10-04T17:05:55.309Z,1.70
2022-10-04T17:08:27.588Z,2.23
2022-10-04T17:11:35.719Z,1.73
2022-10-04T17:14:22.315Z,1.47
2022-10-04T17:16:56.080Z,1.17
2022-10-04T17:19:32.876Z,0.83
2022-10-04T17:22:16.317Z,1.00
2022-10-04T17:24:58.259Z,0.93
2022-10-04T17:27:45.985Z,1.10
2022-10-04T17:30:19.208Z,0.70
2022-10-04T17:33:21.721Z,0.80
2022-10-04T17:36:07.057Z,1.30
2022-10-04T17:38:47.691Z,1.30
2022-10-04T17:41:24.822Z,1.83
2022-10-04T17:44:23.675Z,1.60
2022-10-04T17:46:58.072Z,2.50
2022-10-04T17:49:53.697Z,1.30
2022-10-04T17:52:42.643Z,1.20
2022-10-04T17:55:19.286Z,0.73
2022-10-04T17:57:53.319Z,1.10
2022-10-04T18:00:24.485Z,1.95
2022-10-04T18:03:18.420Z,1.60
2022-10-04T18:05:52.042Z,1.65
2022-10-04T18:08:27.020Z,2.30
2022-10-04T18:11:00.309Z,3.00
2022-10-04T18:13:33.961Z,3.40
2022-10-04T18:16:11.603Z,4.57
2022-10-04T18:18:41.353Z,4.68
2022-10-04T18:21:27.248Z,3.67
2022-10-04T18:24:01.148Z,3.80
2022-10-04T18:26:34.478Z,4.20
2022-10-04T18:29:03.783Z,3.55
2022-10-04T18:31:37.929Z,2.80
2022-10-04T18:34:27.644Z,2.20
2022-10-04T18:37:05.870Z,1.50
2022-10-04T18:39:47.468Z,1.50
2022-10-04T18:42:23.548Z,1.60
2022-10-04T18:45:00.186Z,1.80
2022-10-04T18:47:35.279Z,2.55
2022-10-04T18:50:14.897Z,1.95
2022-10-04T18:52:52.314Z,2.63
2022-10-04T18:55:30.622Z,2.10
2022-10-04T18:58:24.600Z,1.30
2022-10-04T19:01:18.451Z,1.70
2022-10-04T19:03:51.038Z,2.10
2022-10-04T19:06:26.294Z,2.53
2022-10-04T19:09:01.509Z,2.65
2022-10-04T19:11:38.939Z,1.67
2022-10-04T19:14:20.931Z,1.27
2022-10-04T19:16:58.070Z,1.20
2022-10-04T19:19:41.207Z,0.90
2022-10-04T19:22:20.634Z,1.20
2022-10-04T19:25:17.211Z,0.93
2022-10-04T19:27:50.254Z,1.20
2022-10-04T19:30:22.347Z,1.20
2022-10-04T19:33:08.817Z,1.23
2022-10-04T19:35:54.254Z,0.80
2022-10-04T19:38:35.485Z,1.40
2022-10-04T19:41:12.608Z,1.10
2022-10-04T19:43:52.416Z,1.37
2022-10-04T19:46:35.024Z,1.80
2022-10-04T19:49:03.994Z,0.90
2022-10-04T19:51:36.246Z,0.90
2022-10-04T19:54:15.646Z,0.60
2022-10-04T19:56:48.429Z,0.90
2022-10-04T19:59:19.482Z,1.40
2022-10-04T20:01:51.190Z,0.80
2022-10-04T20:04:38.553Z,2.50
2022-10-04T20:07:13.115Z,2.60
2022-10-04T20:09:56.251Z,3.10
2022-10-04T20:12:33.750Z,2.90
2022-10-04T20:15:15.934Z,1.80
2022-10-04T20:17:47.504Z,1.30
2022-10-04T20:20:17.287Z,1.30
2022-10-04T20:22:57.203Z,1.90
2022-10-04T20:26:02.563Z,1.30
2022-10-04T20:28:44.216Z,1.33
2022-10-04T20:31:28.140Z,1.10
2022-10-04T20:34:35.598Z,1.17
2022-10-04T20:37:05.093Z,0.90
2022-10-04T20:40:00.305Z,1.27
2022-10-04T20:42:31.811Z,0.60
2022-10-04T20:45:07.027Z,1.00
2022-10-04T20:47:44.062Z,1.10
2022-10-04T20:50:32.494Z,2.17
2022-10-04T20:53:03.243Z,1.30
2022-10-04T20:55:32.923Z,1.40
2022-10-04T20:58:03.252Z,0.63
2022-10-04T21:00:37.051Z,0.80
2022-10-04T21:03:16.678Z,0.73
2022-10-04T21:05:59.096Z,0.93
2022-10-04T21:08:28.198Z,1.20
2022-10-04T21:11:19.421Z,1.10
2022-10-04T21:13:56.994Z,1.00
2022-10-04T21:16:53.065Z,1.10
2022-10-04T21:19:49.501Z,1.00
2022-10-04T21:22:40.966Z,1.23
2022-10-04T21:25:41.957Z,0.60
2022-10-04T21:28:33.847Z,0.80
2022-10-04T21:31:02.817Z,0.90
2022-10-04T21:33:33.503Z,1.47
2022-10-04T21:36:01.467Z,1.00
2022-10-04T21:38:30.888Z,0.90
2022-10-04T21:40:59.250Z,1.53
2022-10-04T21:43:27.245Z,0.97
2022-10-04T21:45:55.262Z,0.70
2022-10-04T21:48:23.711Z,0.60
2022-10-04T21:50:52.933Z,0.80
2022-10-04T21:53:21.381Z,0.70
2022-10-04T21:55:50.967Z,0.73
2022-10-04T21:58:18.938Z,0.87
2022-10-04T22:00:47.102Z,0.60
2022-10-04T22:03:15.082Z,0.60
2022-10-04T22:05:43.012Z,1.23
2022-10-04T22:08:10.950Z,0.70
2022-10-04T22:10:39.993Z,0.93
2022-10-04T22:13:09.343Z,0.70
2022-10-04T22:15:37.327Z,0.73
2022-10-04T22:18:05.369Z,1.53
2022-10-04T22:20:34.083Z,0.87
2022-10-04T22:23:03.603Z,0.60
2022-10-04T22:25:31.580Z,0.70
2022-10-04T22:28:00.695Z,0.90
2022-10-04T22:30:31.466Z,0.60
2022-10-04T22:33:01.659Z,0.80
2022-10-04T22:35:34.618Z,1.03
2022-10-04T22:38:02.587Z,0.90
2022-10-04T22:40:30.758Z,0.80
2022-10-04T22:43:00.810Z,1.03
2022-10-04T22:45:33.377Z,0.90
2022-10-04T22:48:08.548Z,0.60
2022-10-04T22:50:38.148Z,1.30
2022-10-04T22:53:13.084Z,0.60
2022-10-04T22:55:41.447Z,0.80
2022-10-04T22:58:12.498Z,0.80
2022-10-04T23:00:42.607Z,1.13
2022-10-04T23:03:23.613Z,0.70
2022-10-04T23:05:51.636Z,0.90
2022-10-04T23:08:19.646Z,1.07
2022-10-04T23:10:47.682Z,0.80
2022-10-04T23:13:15.637Z,1.13
2022-10-04T23:15:44.970Z,0.80
2022-10-04T23:18:16.317Z,1.10
2022-10-04T23:20:44.883Z,0.70
2022-10-04T23:23:18.308Z,0.90
2022-10-04T23:25:47.134Z,0.50
2022-10-04T23:28:16.824Z,0.80
2022-10-04T23:30:46.908Z,0.80
2022-10-04T23:33:18.770Z,1.17
2022-10-04T23:35:47.406Z,1.00
2022-10-04T23:38:17.088Z,0.63
2022-10-04T23:40:45.398Z,0.70
2022-10-04T23:43:17.999Z,0.90
2022-10-04T23:45:47.527Z,0.70
2022-10-04T23:48:25.188Z,1.00
2022-10-04T23:50:55.140Z,0.57
2022-10-04T23:53:26.680Z,0.57
2022-10-04T23:55:55.845Z,1.13
2022-10-04T23:58:25.671Z,0.97
